Time;durP1;ratioP1;P1;durP2;ratioP2;P2;SDS_P1;SDS_P2;PMS_P1;PMS_P2;Temp;Humidity;BMP_temperature;BMP_pressure;BME280_temperature;BME280_humidity;BME280_pressure;Samples;Min_cycle;Max_cycle;Signal;HPM_P1;HPM_P2
2022/05/10 00:02:06;;;;;;;0.65;0.43;;;11.80;99.90;;;;;;5007097;28;20079;-85
2022/05/10 00:04:32;;;;;;;0.00;0.00;;;11.90;99.90;;;;;;5026383;28;20041;-85
2022/05/10 00:06:58;;;;;;;0.47;0.47;;;11.90;99.90;;;;;;5007080;28;20755;-85
2022/05/10 00:09:29;;;;;;;0.30;0.30;;;11.90;99.90;;;;;;5023689;28;20218;-85
2022/05/10 00:11:58;;;;;;;0.35;0.25;;;12.00;99.90;;;;;;5022400;28;20041;-85
2022/05/10 00:14:27;;;;;;;0.20;0.20;;;12.00;99.90;;;;;;5007379;28;20041;-85
2022/05/10 00:16:53;;;;;;;0.35;0.35;;;12.00;99.90;;;;;;5021548;28;20041;-85
2022/05/10 00:19:22;;;;;;;8.75;0.63;;;12.00;99.90;;;;;;5022519;28;20072;-90
2022/05/10 00:21:49;;;;;;;4.20;0.63;;;12.00;99.90;;;;;;5024518;28;20045;-89
2022/05/10 00:24:15;;;;;;;0.00;0.00;;;12.00;99.90;;;;;;5004678;28;20036;-79
2022/05/10 00:26:40;;;;;;;0.00;0.00;;;12.00;99.90;;;;;;5022452;28;20059;-79
2022/05/10 00:29:06;;;;;;;0.20;0.20;;;12.10;99.90;;;;;;5008695;28;20041;-79
2022/05/10 00:31:32;;;;;;;0.10;0.10;;;12.10;99.90;;;;;;5004733;28;20148;-79
2022/05/10 00:34:00;;;;;;;0.20;0.20;;;12.10;99.90;;;;;;5022973;28;20068;-79
2022/05/10 00:36:27;;;;;;;0.15;0.15;;;12.10;99.90;;;;;;5001770;28;20060;-79
2022/05/10 00:38:53;;;;;;;0.10;0.10;;;12.10;99.90;;;;;;5002256;28;20049;-79
2022/05/10 00:41:41;;;;;;;0.00;0.00;;;12.00;99.90;;;;;;5003574;28;20375;-79
2022/05/10 00:44:18;;;;;;;1.35;0.68;;;12.00;99.90;;;;;;5018899;28;20374;-79
2022/05/10 00:46:46;;;;;;;1.60;0.30;;;12.00;99.90;;;;;;5034380;28;20490;-79
2022/05/10 00:49:34;;;;;;;0.00;0.00;;;12.10;99.90;;;;;;5019085;28;20052;-79
2022/05/10 00:52:03;;;;;;;0.17;0.17;;;11.90;99.90;;;;;;5001333;28;20049;-80
2022/05/10 00:54:43;;;;;;;0.32;0.20;;;11.90;99.90;;;;;;5019090;28;20049;-80
2022/05/10 00:57:44;;;;;;;0.10;0.10;;;11.90;99.90;;;;;;5034040;28;20419;-80
2022/05/10 01:00:23;;;;;;;1.45;1.35;;;11.90;99.90;;;;;;5013691;28;20053;-80
2022/05/10 01:03:12;;;;;;;0.20;0.20;;;11.80;99.90;;;;;;5018207;28;20053;-80
2022/05/10 01:06:10;;;;;;;0.10;0.10;;;11.80;99.90;;;;;;5017510;28;20041;-80
2022/05/10 01:08:58;;;;;;;1.35;0.85;;;11.80;99.90;;;;;;5018523;28;20030;-79
2022/05/10 01:11:33;;;;;;;0.05;0.05;;;11.70;99.90;;;;;;5000795;28;20383;-79
2022/05/10 01:14:15;;;;;;;0.30;0.28;;;11.70;99.90;;;;;;5019192;28;20042;-79
2022/05/10 01:16:41;;;;;;;1.70;1.15;;;11.70;99.90;;;;;;5017084;28;20045;-79
2022/05/10 01:19:07;;;;;;;0.10;0.10;;;11.80;99.90;;;;;;5001077;28;20049;-79
2022/05/10 01:21:57;;;;;;;0.10;0.10;;;12.60;99.90;;;;;;5004096;28;20041;-79
2022/05/10 01:24:38;;;;;;;0.00;0.00;;;11.80;99.90;;;;;;5015051;28;20436;-79
2022/05/10 01:27:41;;;;;;;0.35;0.25;;;11.80;99.90;;;;;;5017431;28;20076;-85
2022/05/10 01:30:17;;;;;;;0.60;0.60;;;11.80;99.90;;;;;;5019513;28;20053;-85
2022/05/10 01:36:09;;;;;;;0.00;0.00;;;11.80;99.90;;;;;;5022725;28;20049;-85
2022/05/10 01:38:59;;;;;;;0.00;0.00;;;11.90;99.90;;;;;;4999004;28;20056;-85
2022/05/10 01:41:48;;;;;;;0.30;0.30;;;11.90;99.90;;;;;;4998937;28;20050;-85
2022/05/10 01:44:18;;;;;;;0.17;0.17;;;11.90;99.90;;;;;;4992108;28;20558;-89
2022/05/10 01:46:47;;;;;;;0.22;0.10;;;11.90;99.90;;;;;;4988185;28;20044;-89
2022/05/10 01:49:34;;;;;;;0.10;0.10;;;12.00;99.90;;;;;;5003057;28;20870;-89
2022/05/10 01:52:04;;;;;;;0.35;0.25;;;12.00;99.90;;;;;;5002543;28;20080;-89
2022/05/10 01:54:58;;;;;;;0.00;0.00;;;12.00;99.90;;;;;;5003355;28;20041;-89
2022/05/10 01:57:24;;;;;;;0.55;0.20;;;12.10;99.90;;;;;;5003111;28;20080;-88
2022/05/10 02:00:03;;;;;;;0.30;0.30;;;12.10;99.90;;;;;;4988245;28;20038;-89
2022/05/10 02:02:31;;;;;;;0.43;0.20;;;12.10;99.90;;;;;;5002539;28;20046;-89
2022/05/10 02:05:01;;;;;;;0.20;0.20;;;12.20;99.90;;;;;;5002028;28;21122;-89
2022/05/10 02:07:30;;;;;;;0.20;0.20;;;12.10;99.90;;;;;;5001551;28;20055;-89
2022/05/10 02:10:14;;;;;;;0.38;0.30;;;12.00;99.90;;;;;;5002088;28;20053;-89
2022/05/10 02:12:48;;;;;;;0.10;0.10;;;12.10;99.90;;;;;;5003303;28;20076;-89
2022/05/10 02:15:40;;;;;;;0.10;0.10;;;12.00;99.90;;;;;;5002125;28;20045;-79
2022/05/10 02:18:13;;;;;;;0.20;0.20;;;12.00;99.90;;;;;;5001258;28;20045;-79
2022/05/10 02:20:57;;;;;;;0.20;0.20;;;11.90;99.90;;;;;;5003438;28;20140;-79
2022/05/10 02:23:28;;;;;;;1.23;0.75;;;11.90;99.90;;;;;;4999756;28;20042;-79
2022/05/10 02:26:02;;;;;;;0.08;0.08;;;11.90;99.90;;;;;;4986087;28;20481;-79
2022/05/10 02:28:56;;;;;;;2.72;2.08;;;12.00;99.90;;;;;;5018570;28;20056;-79
2022/05/10 02:31:29;;;;;;;0.35;0.35;;;12.00;99.90;;;;;;5000343;28;20511;-79
2022/05/10 02:33:55;;;;;;;0.10;0.10;;;12.00;99.90;;;;;;5003489;28;20076;-80
2022/05/10 02:36:21;;;;;;;0.13;0.13;;;12.20;99.90;;;;;;5001504;28;20049;-80
2022/05/10 02:38:47;;;;;;;0.10;0.10;;;12.10;99.90;;;;;;4999728;28;20049;-80
2022/05/10 02:41:20;;;;;;;0.00;0.00;;;12.20;99.90;;;;;;5021776;28;20126;-80
2022/05/10 02:43:54;;;;;;;0.20;0.20;;;12.20;99.90;;;;;;5020163;28;20041;-80
2022/05/10 02:46:19;;;;;;;1.65;1.00;;;12.20;99.90;;;;;;5022697;28;20037;-80
2022/05/10 02:48:47;;;;;;;0.20;0.20;;;12.30;99.90;;;;;;5032738;22;20060;-78
2022/05/10 02:51:14;;;;;;;0.10;0.10;;;12.30;99.90;;;;;;5020275;28;20056;-79
2022/05/10 02:53:39;;;;;;;0.10;0.10;;;12.30;99.90;;;;;;5023208;28;20037;-79
2022/05/10 02:56:07;;;;;;;0.10;0.10;;;12.30;99.90;;;;;;5020123;28;20059;-79
2022/05/10 02:58:38;;;;;;;0.47;0.47;;;12.40;99.90;;;;;;5042490;28;20060;-79
2022/05/10 03:01:26;;;;;;;0.10;0.10;;;12.30;99.90;;;;;;5020160;28;20025;-79
2022/05/10 03:03:53;;;;;;;0.32;0.30;;;12.40;99.90;;;;;;5037239;28;20033;-79
2022/05/10 03:06:22;;;;;;;0.17;0.17;;;12.40;99.90;;;;;;5058211;28;20033;-88
2022/05/10 03:08:48;;;;;;;0.90;0.43;;;12.40;99.90;;;;;;5021313;28;21304;-89
2022/05/10 03:11:14;;;;;;;0.10;0.10;;;12.40;99.90;;;;;;5020234;28;20877;-88
2022/05/10 03:13:40;;;;;;;0.08;0.08;;;12.50;99.90;;;;;;5038316;28;20140;-89
2022/05/10 03:16:07;;;;;;;0.45;0.45;;;12.50;99.90;;;;;;5039972;28;20043;-88
2022/05/10 03:18:33;;;;;;;0.20;0.20;;;12.40;99.90;;;;;;5039306;28;20029;-89
2022/05/10 03:20:59;;;;;;;1.30;0.50;;;12.40;99.90;;;;;;5015248;28;20037;-89
2022/05/10 03:23:27;;;;;;;0.63;0.45;;;12.40;99.90;;;;;;5036975;28;20041;-86
2022/05/10 03:25:55;;;;;;;0.98;0.68;;;12.40;99.90;;;;;;5021912;28;20053;-85
2022/05/10 03:28:21;;;;;;;0.20;0.20;;;12.90;99.90;;;;;;5021305;28;20107;-86
2022/05/10 03:30:47;;;;;;;0.28;0.28;;;12.50;99.90;;;;;;5004593;28;20039;-85
2022/05/10 03:33:14;;;;;;;1.30;0.68;;;12.50;99.90;;;;;;5042251;28;20037;-86
2022/05/10 03:35:40;;;;;;;0.20;0.15;;;12.50;99.90;;;;;;5038661;28;20076;-85
2022/05/10 03:38:06;;;;;;;0.20;0.20;;;12.50;99.90;;;;;;5026799;28;20142;-85
2022/05/10 03:40:32;;;;;;;0.00;0.00;;;12.50;99.90;;;;;;5043997;28;20510;-85
2022/05/10 03:42:57;;;;;;;1.00;0.43;;;12.50;99.90;;;;;;5018325;28;20091;-85
2022/05/10 03:45:24;;;;;;;0.00;0.00;;;12.50;99.90;;;;;;5022148;28;20051;-85
2022/05/10 03:47:50;;;;;;;0.55;0.30;;;12.60;99.90;;;;;;5038741;28;20098;-86
2022/05/10 03:50:19;;;;;;;0.80;0.45;;;12.60;99.90;;;;;;5020729;28;20422;-85
2022/05/10 03:52:46;;;;;;;0.17;0.17;;;12.60;99.90;;;;;;5023032;28;20104;-80
2022/05/10 03:55:15;;;;;;;0.10;0.10;;;12.60;99.90;;;;;;5021675;28;20045;-80
2022/05/10 03:57:41;;;;;;;0.40;0.35;;;12.70;99.90;;;;;;5021756;28;20095;-80
2022/05/10 04:00:11;;;;;;;0.65;0.43;;;12.70;99.90;;;;;;5039376;28;20422;-80
2022/05/10 04:02:37;;;;;;;0.45;0.38;;;12.80;99.90;;;;;;5022405;28;20530;-80
2022/05/10 04:05:04;;;;;;;0.08;0.08;;;12.80;99.90;;;;;;5019733;28;20453;-80
2022/05/10 04:07:30;;;;;;;0.50;0.50;;;12.90;99.90;;;;;;5035636;28;20443;-80
2022/05/10 04:09:56;;;;;;;0.20;0.20;;;12.90;99.90;;;;;;5033856;28;20036;-80
2022/05/10 04:12:22;;;;;;;0.08;0.08;;;13.00;99.90;;;;;;5035031;28;20045;-80
2022/05/10 04:14:47;;;;;;;0.57;0.57;;;13.10;99.90;;;;;;5038232;28;20082;-80
2022/05/10 04:17:13;;;;;;;0.30;0.30;;;13.00;99.90;;;;;;5019530;28;20482;-80
2022/05/10 04:19:39;;;;;;;0.30;0.30;;;13.00;99.90;;;;;;5002395;28;20136;-80
2022/05/10 04:22:04;;;;;;;0.75;0.38;;;13.10;99.90;;;;;;5021016;28;20494;-80
2022/05/10 04:24:30;;;;;;;0.30;0.30;;;13.20;99.90;;;;;;5020083;28;20041;-80
2022/05/10 04:26:56;;;;;;;0.90;0.47;;;13.20;99.90;;;;;;5035941;28;20044;-79
2022/05/10 04:29:22;;;;;;;0.55;0.38;;;13.30;99.90;;;;;;5037091;28;20037;-85
2022/05/10 04:31:48;;;;;;;0.40;0.40;;;13.40;99.90;;;;;;5005579;28;20482;-86
2022/05/10 04:34:13;;;;;;;1.75;0.65;;;13.40;99.90;;;;;;5016374;28;20076;-85
2022/05/10 04:36:39;;;;;;;1.20;0.63;;;13.50;99.90;;;;;;5037589;28;20043;-85
2022/05/10 04:39:05;;;;;;;0.75;0.75;;;13.60;99.90;;;;;;5035933;28;20048;-85
2022/05/10 04:41:33;;;;;;;0.10;0.10;;;13.60;99.90;;;;;;5020310;28;20761;-85
2022/05/10 04:44:05;;;;;;;0.32;0.32;;;13.70;99.90;;;;;;5037737;28;20399;-85
2022/05/10 04:46:35;;;;;;;0.68;0.63;;;13.70;99.90;;;;;;5034967;28;20040;-89
2022/05/10 04:49:01;;;;;;;0.00;0.00;;;13.80;99.90;;;;;;5038117;28;20180;-89
2022/05/10 04:51:28;;;;;;;0.25;0.25;;;13.90;99.90;;;;;;5016684;28;20049;-89
2022/05/10 04:53:55;;;;;;;0.10;0.10;;;14.00;99.90;;;;;;5024147;28;20041;-89
2022/05/10 04:56:21;;;;;;;0.85;0.55;;;14.00;99.90;;;;;;5036427;28;20132;-89
2022/05/10 04:58:47;;;;;;;0.40;0.40;;;14.00;99.90;;;;;;5018123;28;20037;-89
2022/05/10 05:01:15;;;;;;;2.00;1.40;;;14.10;99.90;;;;;;5036679;28;20149;-88
2022/05/10 05:03:46;;;;;;;2.13;1.95;;;14.20;99.90;;;;;;5019370;28;20641;-85
2022/05/10 05:06:12;;;;;;;0.22;0.22;;;14.20;99.90;;;;;;5035328;28;20041;-86
2022/05/10 05:08:38;;;;;;;0.05;0.05;;;14.30;99.90;;;;;;5014770;28;20039;-86
2022/05/10 05:11:04;;;;;;;0.38;0.38;;;14.40;99.90;;;;;;5020080;28;20025;-85
2022/05/10 05:13:30;;;;;;;0.35;0.35;;;14.40;99.90;;;;;;5022163;28;20140;-86
2022/05/10 05:15:55;;;;;;;0.22;0.22;;;14.50;99.90;;;;;;5036948;28;20475;-86
2022/05/10 05:18:21;;;;;;;0.28;0.28;;;14.60;99.90;;;;;;5034832;28;20078;-86
2022/05/10 05:20:48;;;;;;;0.15;0.15;;;14.60;99.90;;;;;;5037152;28;20053;-85
2022/05/10 05:23:14;;;;;;;0.28;0.22;;;14.70;99.90;;;;;;5019470;28;20352;-85
2022/05/10 05:25:41;;;;;;;0.10;0.10;;;14.80;99.90;;;;;;5018578;28;20056;-85
2022/05/10 05:28:09;;;;;;;1.73;0.90;;;14.80;99.90;;;;;;5037670;28;20048;-85
2022/05/10 05:30:34;;;;;;;0.52;0.52;;;14.90;99.90;;;;;;5034521;28;20550;-86
2022/05/10 05:33:00;;;;;;;0.47;0.47;;;15.00;99.90;;;;;;5034934;28;20060;-86
2022/05/10 05:35:26;;;;;;;0.40;0.40;;;15.10;99.90;;;;;;5041962;28;20506;-80
2022/05/10 05:37:54;;;;;;;0.65;0.65;;;15.10;99.90;;;;;;5017863;28;20100;-80
2022/05/10 05:40:20;;;;;;;0.22;0.22;;;15.20;99.90;;;;;;5036584;28;20102;-80
2022/05/10 05:42:47;;;;;;;0.20;0.20;;;15.30;99.90;;;;;;5033997;28;20041;-80
2022/05/10 05:45:15;;;;;;;1.02;0.93;;;15.40;99.90;;;;;;5019366;28;20045;-80
2022/05/10 05:47:41;;;;;;;0.10;0.10;;;15.50;99.90;;;;;;5036408;28;20033;-80
2022/05/10 05:50:08;;;;;;;1.98;0.70;;;15.60;99.90;;;;;;5034485;28;20404;-80
2022/05/10 05:52:34;;;;;;;0.15;0.10;;;15.70;99.90;;;;;;5033569;28;20044;-81
2022/05/10 05:55:00;;;;;;;1.15;1.08;;;15.80;99.90;;;;;;5035558;28;20072;-80
2022/05/10 05:57:26;;;;;;;0.10;0.10;;;15.90;99.90;;;;;;5017453;28;21688;-80
2022/05/10 05:59:53;;;;;;;0.55;0.45;;;16.00;99.90;;;;;;5038046;28;20122;-80
2022/05/10 06:02:21;;;;;;;0.75;0.75;;;16.20;99.90;;;;;;5035093;28;20438;-80
2022/05/10 06:04:47;;;;;;;0.10;0.10;;;16.30;99.90;;;;;;5035190;28;20049;-80
2022/05/10 06:07:16;;;;;;;0.10;0.10;;;16.40;99.90;;;;;;5037222;28;20044;-81
2022/05/10 06:09:42;;;;;;;1.23;0.75;;;16.50;99.90;;;;;;5015424;28;20478;-80
2022/05/10 06:12:10;;;;;;;0.32;0.32;;;16.70;99.90;;;;;;5017700;28;20039;-80
2022/05/10 06:14:37;;;;;;;0.35;0.22;;;16.90;99.90;;;;;;5035679;28;20049;-80
2022/05/10 06:17:04;;;;;;;1.45;1.08;;;17.20;99.90;;;;;;5033996;28;20154;-80
2022/05/10 06:19:30;;;;;;;2.08;1.10;;;17.40;99.90;;;;;;5033896;28;20045;-80
2022/05/10 06:21:56;;;;;;;1.38;0.85;;;17.70;99.90;;;;;;5021560;28;20044;-80
2022/05/10 06:24:23;;;;;;;0.80;0.60;;;17.90;99.90;;;;;;5015091;28;20095;-80
2022/05/10 06:26:49;;;;;;;0.32;0.32;;;18.10;99.90;;;;;;5015958;28;20041;-80
2022/05/10 06:29:15;;;;;;;0.10;0.10;;;18.20;99.90;;;;;;5020078;28;20056;-80
2022/05/10 06:31:45;;;;;;;0.32;0.30;;;18.40;99.90;;;;;;5005127;28;20123;-80
2022/05/10 06:34:11;;;;;;;1.27;1.02;;;18.40;99.90;;;;;;5039430;28;20106;-80
2022/05/10 06:36:38;;;;;;;2.10;1.13;;;18.30;99.90;;;;;;5038571;28;20040;-80
2022/05/10 06:39:05;;;;;;;0.17;0.17;;;18.40;99.90;;;;;;5038702;28;20036;-80
2022/05/10 06:41:31;;;;;;;0.70;0.70;;;18.40;99.90;;;;;;5023117;28;20047;-80
2022/05/10 06:43:58;;;;;;;0.30;0.30;;;18.40;99.90;;;;;;5020323;28;20096;-79
2022/05/10 06:46:24;;;;;;;0.35;0.35;;;18.50;99.90;;;;;;5015775;28;20045;-79
2022/05/10 06:48:50;;;;;;;0.55;0.47;;;18.60;99.90;;;;;;5038320;28;20506;-79
2022/05/10 06:51:19;;;;;;;0.40;0.40;;;18.70;99.90;;;;;;5039227;28;20052;-79
2022/05/10 06:53:45;;;;;;;0.20;0.20;;;18.80;99.90;;;;;;5023964;28;20101;-79
2022/05/10 06:56:11;;;;;;;0.35;0.32;;;19.00;99.90;;;;;;5017657;28;20037;-79
2022/05/10 06:58:37;;;;;;;1.55;1.45;;;19.20;99.90;;;;;;5036997;28;20066;-80
2022/05/10 07:01:11;;;;;;;1.67;1.30;;;19.40;99.90;;;;;;5030039;28;20108;-80
2022/05/10 07:03:42;;;;;;;1.23;0.85;;;19.60;99.90;;;;;;5037899;28;20108;-80
2022/05/10 07:06:09;;;;;;;0.32;0.32;;;19.80;99.90;;;;;;5037206;28;20041;-80
2022/05/10 07:08:35;;;;;;;0.35;0.35;;;20.00;99.90;;;;;;5036014;28;20036;-80
2022/05/10 07:11:01;;;;;;;0.68;0.55;;;20.00;99.80;;;;;;5035055;28;20033;-80
2022/05/10 07:13:29;;;;;;;0.38;0.30;;;20.00;98.70;;;;;;5052994;28;20060;-80
2022/05/10 07:15:55;;;;;;;0.10;0.10;;;20.10;98.00;;;;;;5053814;28;20084;-80
2022/05/10 07:18:21;;;;;;;1.23;1.13;;;20.00;98.00;;;;;;5054154;28;20095;-80
2022/05/10 07:20:48;;;;;;;1.00;0.98;;;20.10;98.10;;;;;;5036770;28;20045;-80
2022/05/10 07:23:23;;;;;;;1.48;0.60;;;20.10;98.80;;;;;;5045606;28;20174;-79
2022/05/10 07:25:49;;;;;;;0.13;0.13;;;20.00;98.20;;;;;;5039532;28;20045;-79
2022/05/10 07:28:14;;;;;;;0.20;0.20;;;19.90;98.70;;;;;;5000831;28;20041;-79
2022/05/10 07:30:40;;;;;;;0.13;0.10;;;19.70;98.80;;;;;;5037534;28;20044;-79
2022/05/10 07:33:07;;;;;;;0.13;0.13;;;19.80;99.10;;;;;;5041428;28;20037;-79
2022/05/10 07:38:18;;;;;;;1.77;0.90;;;19.60;99.10;;;;;;5035641;28;20545;-79
2022/05/10 07:40:47;;;;;;;0.95;0.57;;;19.60;98.90;;;;;;5020023;28;20098;-80
2022/05/10 07:43:14;;;;;;;6.65;1.00;;;19.70;99.60;;;;;;5036374;28;20046;-79
2022/05/10 07:45:41;;;;;;;0.20;0.20;;;19.70;99.30;;;;;;5039279;28;20064;-80
2022/05/10 07:48:07;;;;;;;0.20;0.20;;;19.80;99.50;;;;;;5040396;28;20064;-79
2022/05/10 07:50:33;;;;;;;0.90;0.63;;;19.90;99.70;;;;;;5020069;28;20128;-80
2022/05/10 07:53:06;;;;;;;0.28;0.25;;;20.20;99.60;;;;;;5013561;28;20036;-80
2022/05/10 07:55:34;;;;;;;0.13;0.13;;;20.40;98.80;;;;;;5037292;28;20466;-80
2022/05/10 07:58:00;;;;;;;0.08;0.08;;;20.50;98.70;;;;;;5010960;28;20056;-80
2022/05/10 08:00:26;;;;;;;0.35;0.22;;;20.60;99.10;;;;;;5019854;28;20053;-80
2022/05/10 08:02:51;;;;;;;0.32;0.32;;;20.60;99.30;;;;;;5022710;28;20048;-80
2022/05/10 08:05:20;;;;;;;0.00;0.00;;;20.70;97.80;;;;;;5014328;28;20045;-86
2022/05/10 08:07:47;;;;;;;0.38;0.20;;;20.80;98.30;;;;;;5019696;28;20045;-88
2022/05/10 08:10:14;;;;;;;0.70;0.45;;;20.70;97.60;;;;;;5039703;28;20049;-86
2022/05/10 08:12:39;;;;;;;2.95;0.93;;;20.70;98.00;;;;;;5037573;28;20033;-86
2022/05/10 08:15:06;;;;;;;0.52;0.50;;;20.90;98.00;;;;;;5038290;28;20037;-87
2022/05/10 08:17:32;;;;;;;0.20;0.20;;;21.00;97.10;;;;;;5020237;28;20143;-87
2022/05/10 08:19:57;;;;;;;2.95;1.55;;;21.30;96.80;;;;;;5006003;28;20033;-86
2022/05/10 08:22:23;;;;;;;1.25;0.82;;;21.60;96.10;;;;;;5022967;28;20386;-80
2022/05/10 08:24:49;;;;;;;0.13;0.13;;;21.70;96.00;;;;;;5040372;28;20136;-80
2022/05/10 08:27:15;;;;;;;0.17;0.17;;;21.90;96.10;;;;;;5033808;28;20040;-80
2022/05/10 08:29:42;;;;;;;0.10;0.10;;;22.10;95.20;;;;;;5051895;28;20029;-80
2022/05/10 08:32:08;;;;;;;0.45;0.45;;;22.20;95.00;;;;;;5032475;28;20065;-80
2022/05/10 08:34:35;;;;;;;0.43;0.43;;;22.10;94.80;;;;;;5035095;28;20052;-80
2022/05/10 08:37:04;;;;;;;11.50;1.40;;;22.10;95.10;;;;;;5051155;28;20048;-80
2022/05/10 08:39:31;;;;;;;0.35;0.30;;;21.90;94.10;;;;;;5052520;28;20052;-86
2022/05/10 08:42:16;;;;;;;1.27;1.17;;;21.90;93.90;;;;;;5043703;28;20041;-86
2022/05/10 08:44:42;;;;;;;0.35;0.35;;;21.80;94.30;;;;;;5052569;28;20045;-86
2022/05/10 08:47:12;;;;;;;0.10;0.10;;;21.90;94.70;;;;;;5051551;28;20386;-86
2022/05/10 08:50:04;;;;;;;0.82;0.82;;;22.00;95.10;;;;;;5052004;28;20052;-86
2022/05/10 08:52:35;;;;;;;0.32;0.32;;;22.10;93.70;;;;;;5042286;28;20049;-87
2022/05/10 08:55:02;;;;;;;0.40;0.40;;;22.10;93.70;;;;;;5034872;28;20499;-87
2022/05/10 08:57:51;;;;;;;0.15;0.15;;;22.30;93.90;;;;;;5051667;28;20044;-85
2022/05/10 09:00:42;;;;;;;0.75;0.75;;;22.20;93.70;;;;;;5028965;28;20037;-85
2022/05/10 09:03:16;;;;;;;2.45;0.52;;;22.20;93.20;;;;;;5046967;28;20576;-85
2022/05/10 09:05:44;;;;;;;1.40;1.30;;;22.20;93.30;;;;;;5052189;28;20041;-85
2022/05/10 09:08:35;;;;;;;0.47;0.47;;;22.40;93.60;;;;;;5034894;28;20146;-86
2022/05/10 09:11:09;;;;;;;0.52;0.45;;;22.80;94.10;;;;;;5021007;28;20037;-85
2022/05/10 09:13:36;;;;;;;0.80;0.80;;;23.20;92.90;;;;;;5052024;28;20036;-85
2022/05/10 09:16:09;;;;;;;0.52;0.52;;;23.60;92.50;;;;;;5035450;28;20479;-85
2022/05/10 09:18:51;;;;;;;2.75;0.95;;;23.70;91.40;;;;;;5051626;28;20028;-85
2022/05/10 09:21:47;;;;;;;0.32;0.30;;;23.60;90.90;;;;;;5038681;28;20033;-85
2022/05/10 09:24:16;;;;;;;0.32;0.30;;;23.60;91.10;;;;;;5051639;28;20041;-85
2022/05/10 09:26:45;;;;;;;0.20;0.20;;;23.80;90.70;;;;;;5051987;28;20044;-85
2022/05/10 09:29:36;;;;;;;0.90;0.77;;;24.00;89.30;;;;;;5050172;28;20044;-85
2022/05/10 09:35:21;;;;;;;0.47;0.45;;;24.00;88.50;;;;;;5009452;28;20498;-85
2022/05/10 09:37:55;;;;;;;0.40;0.40;;;23.80;89.40;;;;;;5044896;28;20040;-85
2022/05/10 09:40:34;;;;;;;0.47;0.40;;;23.50;89.60;;;;;;5028448;28;20048;-85
2022/05/10 09:43:33;;;;;;;0.98;0.93;;;23.20;89.90;;;;;;5045127;28;20051;-85
2022/05/10 09:46:07;;;;;;;0.55;0.55;;;22.90;90.10;;;;;;5015002;28;20060;-80
2022/05/10 09:48:33;;;;;;;0.55;0.55;;;22.90;90.50;;;;;;5033851;28;20036;-81
2022/05/10 09:50:59;;;;;;;1.10;0.55;;;22.80;90.90;;;;;;5038382;28;20049;-80
2022/05/10 09:53:28;;;;;;;0.75;0.60;;;23.00;90.20;;;;;;5018100;28;20394;-80
2022/05/10 09:56:25;;;;;;;0.00;0.00;;;23.10;90.30;;;;;;5044045;28;20378;-80
2022/05/10 09:59:05;;;;;;;0.95;0.40;;;23.30;90.70;;;;;;5019306;28;20441;-80
2022/05/10 10:01:48;;;;;;;0.30;0.30;;;23.60;90.30;;;;;;5037908;28;20933;-80
2022/05/10 10:04:22;;;;;;;1.55;0.55;;;23.80;90.00;;;;;;5042906;28;20045;-86
2022/05/10 10:07:06;;;;;;;0.50;0.40;;;24.10;87.90;;;;;;5042444;28;20132;-86
2022/05/10 10:09:38;;;;;;;0.55;0.55;;;24.50;88.10;;;;;;5028781;28;20037;-86
2022/05/10 10:12:11;;;;;;;4.25;0.95;;;24.70;85.50;;;;;;5027017;28;20052;-86
2022/05/10 10:14:41;;;;;;;0.28;0.28;;;24.90;85.60;;;;;;5042892;28;20044;-87
2022/05/10 10:17:20;;;;;;;0.40;0.38;;;24.80;85.40;;;;;;5057273;28;20150;-87
2022/05/10 10:19:55;;;;;;;0.10;0.10;;;24.60;85.40;;;;;;5056598;28;20072;-81
2022/05/10 10:22:33;;;;;;;0.30;0.30;;;24.80;84.60;;;;;;5058320;28;20044;-81
2022/05/10 10:25:08;;;;;;;0.35;0.35;;;24.80;84.50;;;;;;5057523;28;20037;-81
2022/05/10 10:27:43;;;;;;;0.70;0.40;;;24.70;84.20;;;;;;5037470;28;20037;-81
2022/05/10 10:30:20;;;;;;;0.52;0.22;;;24.50;82.90;;;;;;5043117;28;20037;-80
2022/05/10 10:33:09;;;;;;;0.30;0.30;;;24.10;83.20;;;;;;5052296;28;20116;-81
2022/05/10 10:35:45;;;;;;;0.00;0.00;;;23.70;84.70;;;;;;5036290;28;20036;-87
2022/05/10 10:38:55;;;;;;;2.00;0.52;;;23.70;84.70;;;;;;5041426;28;20045;-86
2022/05/10 10:41:55;;;;;;;1.25;1.15;;;23.30;84.60;;;;;;4998386;28;20077;-86
2022/05/10 10:44:30;;;;;;;0.10;0.10;;;23.10;85.80;;;;;;4980000;28;20054;-86
2022/05/10 10:47:16;;;;;;;0.35;0.35;;;22.90;86.60;;;;;;5029737;28;20058;-86
2022/05/10 10:49:42;;;;;;;;;;;22.70;87.60;;;;;;5031108;28;20083;-87
2022/05/10 10:52:08;;;;;;;0.43;0.40;;;22.50;88.30;;;;;;5041159;28;19958;-81
2022/05/10 10:54:35;;;;;;;2.45;0.85;;;22.30;89.20;;;;;;5057248;28;20097;-80
2022/05/10 10:57:32;;;;;;;0.52;0.22;;;22.30;89.70;;;;;;5057253;28;20037;-81
2022/05/10 11:00:13;;;;;;;0.98;0.93;;;22.20;90.40;;;;;;5057609;28;20517;-80
2022/05/10 11:03:02;;;;;;;0.40;0.40;;;22.20;90.70;;;;;;5039681;28;20052;-81
2022/05/10 11:05:31;;;;;;;0.30;0.30;;;22.20;91.10;;;;;;5056317;28;20117;-81
2022/05/10 11:08:12;;;;;;;0.90;0.90;;;22.30;91.40;;;;;;5073203;28;20081;-81
2022/05/10 11:10:47;;;;;;;2.75;0.82;;;22.40;91.60;;;;;;5055588;28;20036;-80
2022/05/10 11:13:34;;;;;;;0.33;0.33;;;22.70;91.80;;;;;;5053597;28;20110;-80
2022/05/10 11:16:29;;;;;;;0.10;0.10;;;23.00;91.20;;;;;;5051507;28;20124;-80
2022/05/10 11:19:24;;;;;;;2.08;1.88;;;23.00;91.60;;;;;;5040367;28;20131;-80
2022/05/10 11:22:02;;;;;;;0.80;0.52;;;23.00;91.70;;;;;;5056632;28;20045;-80
2022/05/10 11:24:50;;;;;;;0.77;0.75;;;23.00;91.90;;;;;;5040788;28;20044;-80
2022/05/10 11:27:31;;;;;;;0.28;0.28;;;23.30;92.10;;;;;;5051586;28;20179;-80
2022/05/10 11:30:08;;;;;;;0.45;0.45;;;23.30;92.40;;;;;;5048154;28;20041;-80
2022/05/10 11:33:08;;;;;;;0.70;0.40;;;23.80;92.00;;;;;;5056249;28;20041;-80
2022/05/10 11:36:05;;;;;;;0.10;0.10;;;23.70;91.70;;;;;;5056790;28;20039;-80
2022/05/10 11:38:52;;;;;;;0.20;0.20;;;24.10;91.50;;;;;;5015571;28;20143;-81
2022/05/10 11:41:26;;;;;;;0.40;0.40;;;24.40;91.20;;;;;;5056002;28;20127;-80
2022/05/10 11:44:14;;;;;;;0.65;0.65;;;24.50;90.50;;;;;;5043245;28;20036;-86
2022/05/10 11:47:04;;;;;;;0.13;0.13;;;24.40;90.50;;;;;;5039691;28;20036;-86
2022/05/10 11:49:36;;;;;;;0.35;0.35;;;24.20;88.00;;;;;;5054227;28;20052;-87
2022/05/10 11:52:40;;;;;;;0.98;0.93;;;23.70;85.90;;;;;;5044456;28;20044;-86
2022/05/10 11:55:36;;;;;;;0.20;0.20;;;23.80;87.00;;;;;;5036375;28;20039;-86
2022/05/10 11:58:07;;;;;;;1.08;0.95;;;23.70;88.00;;;;;;5039710;28;20106;-86
2022/05/10 12:00:32;;;;;;;0.28;0.28;;;23.60;86.70;;;;;;5027042;28;20383;-80
2022/05/10 12:03:00;;;;;;;0.05;0.05;;;23.50;87.80;;;;;;5055643;28;20135;-80
2022/05/10 12:05:29;;;;;;;0.20;0.20;;;23.20;88.40;;;;;;5056514;28;20033;-80
2022/05/10 12:08:04;;;;;;;0.10;0.10;;;23.30;88.60;;;;;;5055950;28;20044;-80
2022/05/10 12:10:40;;;;;;;5.20;0.40;;;23.30;88.20;;;;;;5038761;28;20449;-80
2022/05/10 12:21:19;;;;;;;0.20;0.17;;;23.30;89.20;;;;;;5055921;28;20036;-80
2022/05/10 12:22:07;;;;;;;0.20;0.20;;;24.50;83.80;;;;;;5039573;28;20165;-81
2022/05/10 12:24:39;;;;;;;0.20;0.20;;;24.60;83.50;;;;;;5026084;28;20250;-81
2022/05/10 12:27:11;;;;;;;0.28;0.13;;;24.40;82.70;;;;;;5028524;28;20074;-80
2022/05/10 12:29:40;;;;;;;0.00;0.00;;;24.50;82.40;;;;;;5043433;28;20040;-81
2022/05/10 12:32:17;;;;;;;0.20;0.20;;;24.10;81.50;;;;;;5024226;28;20485;-80
2022/05/10 12:34:56;;;;;;;0.08;0.08;;;23.70;81.10;;;;;;5041318;28;20509;-80
2022/05/10 12:37:26;;;;;;;1.55;1.30;;;23.50;81.50;;;;;;5040169;28;20052;-80
2022/05/10 12:39:57;;;;;;;0.38;0.30;;;23.20;78.70;;;;;;5038583;28;20048;-80
2022/05/10 12:42:40;;;;;;;0.00;0.00;;;23.00;76.50;;;;;;5025677;28;20470;-80
2022/05/10 12:45:17;;;;;;;0.00;0.00;;;23.00;74.10;;;;;;5038724;28;20120;-80
2022/05/10 12:47:52;;;;;;;0.30;0.30;;;22.70;72.50;;;;;;5038707;28;20048;-80
2022/05/10 12:50:49;;;;;;;0.00;0.00;;;22.70;72.10;;;;;;5044101;28;20410;-80
2022/05/10 12:53:30;;;;;;;6.43;0.30;;;22.40;69.10;;;;;;5023971;28;20091;-80
2022/05/10 12:56:20;;;;;;;0.00;0.00;;;22.10;65.30;;;;;;5040895;28;20036;-80
2022/05/10 12:58:53;;;;;;;0.30;0.30;;;22.20;65.80;;;;;;5038946;28;20037;-81
2022/05/10 13:01:22;;;;;;;0.43;0.43;;;21.80;64.90;;;;;;5041349;28;20048;-81
2022/05/10 13:03:59;;;;;;;0.00;0.00;;;21.70;66.70;;;;;;5038153;28;20119;-81
2022/05/10 13:06:46;;;;;;;0.00;0.00;;;21.70;69.30;;;;;;5040306;28;20084;-81
2022/05/10 13:09:29;;;;;;;0.00;0.00;;;21.70;68.60;;;;;;5043353;28;20045;-81
2022/05/10 13:12:18;;;;;;;0.10;0.10;;;21.50;69.80;;;;;;5025057;28;20101;-80
2022/05/10 13:14:48;;;;;;;0.00;0.00;;;21.30;69.60;;;;;;5039639;28;20036;-80
2022/05/10 13:17:32;;;;;;;0.00;0.00;;;21.10;69.70;;;;;;5038779;28;20127;-80
2022/05/10 13:19:59;;;;;;;0.10;0.10;;;20.90;70.60;;;;;;5016939;28;20608;-80
2022/05/10 13:22:27;;;;;;;0.05;0.03;;;21.00;71.20;;;;;;5025216;28;20045;-86
2022/05/10 13:24:55;;;;;;;0.00;0.00;;;20.80;70.50;;;;;;5043158;28;20052;-86
2022/05/10 13:27:30;;;;;;;0.30;0.30;;;20.80;70.80;;;;;;5038955;28;20045;-86
2022/05/10 13:30:09;;;;;;;0.00;0.00;;;20.80;70.70;;;;;;5041555;28;20067;-85
2022/05/10 13:32:40;;;;;;;0.05;0.05;;;20.70;71.70;;;;;;5037499;28;20044;-86